Latest Weather Observations for Milingimbi

IDD60801

Issued at 9:41 pm CST Friday 15 November 2019 (issued every 10 minutes, with the page automatically refreshed every 10 minutes)

About weather observations | Map of weather stations | Latest weather observations for NT | Other Formats
Station Details ID: 014404 Name: MILINGIMBI AIRPORT Lat: -12.09 Lon: 134.89 Height: 15.0 m
Data from the previous 72 hours. | See also: Recent months at Milingimbi
Date/Time
CST
Temp
°C
App
Temp
°C
Dew
Point
°C
Rel
Hum
%
Delta-T
°C
Wind Press
QNH
hPa
Press
MSL
hPa
Rain since
9am
mm
Dir  Spd
km/h
Gust
km/h
Spd
kts
Gust
kts
15/09:30pm 27.9 32.6 23.3 76 3.2 NE 4 7 2 4 1010.8 1010.7 0.0
15/09:00pm 28.3 32.5 23.2 74 3.5 NE 6 11 3 6 1010.5 1010.4 0.0
15/08:30pm 28.4 32.8 23.5 75 3.4 NE 6 11 3 6 1010.3 1010.2 0.0
15/08:00pm 28.7 32.6 23.6 74 3.5 NE 9 17 5 9 1009.9 1009.8 0.0
15/07:30pm 28.9 32.4 23.6 73 3.7 NNE 11 17 6 9 1009.7 1009.6 0.0
15/07:00pm 29.1 33.3 23.5 72 3.9 NNE 7 13 4 7 1009.5 1009.4 0.0
15/06:30pm 29.3 32.3 23.3 70 4.1 NNE 13 20 7 11 1009.1 1009.0 0.0
15/06:00pm 29.9 32.8 23.1 67 4.7 NNE 13 20 7 11 1008.8 1008.7 0.0
15/05:30pm 30.8 33.9 22.9 62 5.4 N 11 24 6 13 1008.5 1008.4 0.0
15/05:00pm 31.4 34.2 23.0 61 5.8 NNE 13 22 7 12 1008.4 1008.3 0.0
15/04:30pm 32.0 34.6 23.3 60 6.0 N 15 26 8 14 1008.1 1008.0 0.0
15/04:00pm 32.1 33.9 22.5 57 6.6 NNE 17 30 9 16 1008.1 1008.0 0.0
15/03:30pm 32.2 34.0 22.6 57 6.6 N 17 30 9 16 1008.4 1008.3 0.0
15/03:00pm 32.7 34.8 23.1 57 6.6 NNE 17 32 9 17 1008.6 1008.5 0.0
15/02:30pm 32.1 33.2 23.1 59 6.2 NNE 22 33 12 18 1008.6 1008.5 0.0
15/02:00pm 32.8 34.6 23.2 57 6.6 NNE 19 33 10 18 1008.8 1008.7 0.0
15/01:30pm 33.2 35.5 23.5 56 6.7 NNE 17 35 9 19 1009.1 1009.0 0.0
15/01:00pm 33.3 35.0 22.4 52 7.5 N 17 32 9 17 1009.4 1009.3 0.0
15/12:30pm 33.8 35.3 21.2 47 8.5 N 15 26 8 14 1009.7 1009.6 0.0
15/12:00pm 34.9 35.6 18.9 39 10.5 NE 13 24 7 13 1010.1 1010.0 0.0
15/11:30am 34.4 35.3 19.2 40 10.0 NE 13 20 7 11 1010.4 1010.3 0.0
15/11:00am 33.9 35.9 19.9 43 9.3 ENE 9 20 5 11 1010.7 1010.6 0.0
15/10:30am 33.8 35.9 20.2 44 9.1 E 9 17 5 9 1011.1 1011.0 0.0
15/10:00am 32.9 36.1 21.7 51 7.6 ENE 7 13 4 7 1011.4 1011.3 0.0
15/09:30am 32.6 36.2 22.1 54 7.2 NW 6 11 3 6 1011.5 1011.4 0.0
15/09:00am 31.2 34.4 21.7 57 6.4 SSW 7 13 4 7 1011.3 1011.2 0.0
15/08:30am 31.4 35.5 23.0 61 5.8 SW 6 9 3 5 1011.1 1011.0 0.0
15/08:00am 30.3 34.4 23.2 65 4.9 SW 7 11 4 6 1010.8 1010.7 0.0
15/07:30am 28.7 33.1 23.8 75 3.4 WSW 7 9 4 5 1010.7 1010.6 0.0
15/07:00am 27.1 31.8 24.0 83 2.1 SW 6 7 3 4 1010.2 1010.1 0.0
15/06:30am 25.6 31.3 23.8 90 1.2 CALM 0 0 0 0 1009.7 1009.6 0.0
15/06:00am 25.5 31.1 23.6 89 1.3 CALM 0 0 0 0 1009.2 1009.1 0.0
15/05:30am 25.8 31.2 23.3 86 1.7 CALM 0 7 0 4 1008.8 1008.7 0.0
15/05:00am 26.5 32.0 23.4 83 2.1 CALM 0 0 0 0 1008.7 1008.6 0.0
15/04:30am 27.0 32.1 23.3 80 2.5 N 2 6 1 3 1008.6 1008.5 0.0
15/04:00am 27.5 32.4 23.7 80 2.6 N 4 7 2 4 1008.5 1008.4 0.0
15/03:30am 27.4 32.4 23.8 81 2.5 N 4 9 2 5 1008.4 1008.3 0.0
15/03:00am 27.1 31.7 23.8 82 2.3 N 6 9 3 5 1008.3 1008.2 0.0
15/02:30am 26.9 32.3 23.8 83 2.1 N 2 11 1 6 1008.5 1008.4 0.0
15/02:00am 26.6 32.4 23.9 85 1.9 CALM 0 7 0 4 1008.7 1008.6 0.0
15/01:30am 26.1 31.5 23.2 84 2.0 CALM 0 6 0 3 1008.9 1008.8 0.0
15/01:00am 26.1 31.4 23.0 83 2.1 CALM 0 0 0 0 1009.1 1009.0 0.0
15/12:30am 26.3 31.6 23.0 82 2.2 CALM 0 4 0 2 1009.5 1009.4 0.0
15/12:00am 26.6 31.8 22.9 80 2.5 CALM 0 0 0 0 1010.0 1009.9 0.0
 
Date/Time
CST
Temp
°C
App
Temp
°C
Dew
Point
°C
Rel
Hum
%
Delta-T
°C
Wind Press
QNH
hPa
Press
MSL
hPa
Rain since
9am
mm
Dir  Spd
km/h
Gust
km/h
Spd
kts
Gust
kts
14/11:30pm 26.8 32.1 23.1 80 2.5 CALM 0 0 0 0 1010.4 1010.3 0.0
14/11:00pm 27.4 32.7 23.0 77 3.0 CALM 0 0 0 0 1010.6 1010.5 0.0
14/10:30pm 27.7 31.9 23.1 76 3.1 NE 6 9 3 5 1010.6 1010.5 0.0
14/10:00pm 27.4 31.4 22.8 76 3.1 NE 6 7 3 4 1010.7 1010.6 0.0
14/09:30pm 27.5 32.7 22.9 76 3.1 CALM 0 0 0 0 1010.5 1010.4 0.0
14/09:00pm 28.0 33.2 22.9 74 3.5 CALM 0 0 0 0 1010.2 1010.1 0.0
14/08:30pm 28.5 33.9 23.2 73 3.6 CALM 0 0 0 0 1009.8 1009.7 0.0
14/08:00pm 28.8 33.0 23.2 71 3.8 NNE 6 7 3 4 1009.4 1009.3 0.0
14/07:30pm 29.0 33.1 23.2 71 4.0 NNE 7 13 4 7 1008.8 1008.7 0.0
14/07:00pm 29.1 33.1 23.1 70 4.1 NNE 7 9 4 5 1008.5 1008.4 0.0
14/06:30pm 29.4 33.1 22.6 67 4.6 NNE 7 11 4 6 1008.2 1008.1 0.0
14/06:00pm 29.9 33.2 22.6 65 5.0 NNE 9 15 5 8 1008.0 1007.9 0.0
14/05:30pm 30.3 33.1 23.0 65 5.0 NNE 13 20 7 11 1007.7 1007.6 0.0
14/05:00pm 31.2 33.9 22.8 61 5.8 NNE 13 20 7 11 1007.5 1007.4 0.0
14/04:30pm 31.2 33.3 22.5 60 5.9 N 15 24 8 13 1007.6 1007.5 0.0
14/04:00pm 31.8 34.1 22.8 59 6.2 N 15 28 8 15 1007.9 1007.8 0.0
14/03:30pm 31.8 33.4 22.2 56 6.5 N 17 28 9 15 1008.3 1008.2 0.0
14/03:00pm 32.5 34.2 22.3 55 7.0 N 17 30 9 16 1008.4 1008.3 0.0
14/02:30pm 32.9 35.0 22.4 54 7.2 N 15 22 8 12 1008.7 1008.6 0.0
14/02:00pm 33.1 35.2 22.5 53 7.3 N 15 26 8 14 1009.2 1009.1 0.0
14/01:30pm 34.2 36.8 21.9 48 8.4 NE 11 20 6 11 1009.7 1009.6 0.0
14/01:00pm 35.0 37.4 21.6 45 9.1 ENE 11 17 6 9 1010.2 1010.1 0.0
14/12:30pm 33.8 36.2 20.9 46 8.7 ENE 9 17 5 9 1010.7 1010.6 0.0
14/12:00pm 33.2 35.3 21.7 51 7.8 NE 13 20 7 11 1011.3 1011.2 0.0
14/11:30am 33.1 35.0 21.3 50 8.0 NE 13 20 7 11 1011.7 1011.6 0.0
14/11:00am 32.9 34.0 20.4 47 8.3 E 15 28 8 15 1012.2 1012.1 0.0
14/10:30am 32.9 35.1 21.1 50 7.9 E 11 20 6 11 1012.4 1012.3 0.0
14/10:00am 31.8 36.0 23.1 60 6.0 W 6 9 3 5 1012.5 1012.4 0.0
14/09:30am 30.4 34.3 22.6 63 5.3 W 6 9 3 5 1012.4 1012.3 0.0
14/09:00am 30.9 34.6 22.5 61 5.7 NNE 7 11 4 6 1012.1 1012.0 0.0
14/08:30am 30.9 35.0 23.3 64 5.2 SSE 7 11 4 6 1012.0 1011.9 0.0
14/08:00am 28.8 33.3 23.7 74 3.5 SSW 6 9 3 5 1011.9 1011.8 0.0
14/07:30am 27.1 31.2 23.3 80 2.6 SSW 7 9 4 5 1011.7 1011.6 0.0
14/07:00am 26.2 30.1 22.9 82 2.2 SW 7 11 4 6 1011.3 1011.2 0.0
14/06:30am 25.8 29.3 22.9 84 2.0 SSW 9 11 5 6 1011.0 1010.9 0.0
14/06:00am 25.2 29.9 23.3 89 1.3 SSW 4 7 2 4 1010.3 1010.2 0.0
14/05:30am 24.6 29.7 22.7 89 1.3 CALM 0 0 0 0 1009.8 1009.7 0.0
14/05:00am 24.8 29.8 22.5 87 1.5 CALM 0 0 0 0 1009.5 1009.4 0.0
14/04:30am 25.4 30.6 22.9 86 1.7 CALM 0 0 0 0 1009.5 1009.4 0.0
14/04:00am 25.3 30.4 22.6 85 1.8 CALM 0 0 0 0 1009.2 1009.1 0.0
14/03:30am 25.8 29.9 22.9 84 2.0 NNE 6 7 3 4 1009.3 1009.2 0.0
14/03:00am 25.7 30.2 23.0 85 1.8 NNE 4 11 2 6 1009.4 1009.3 0.0
14/02:30am 26.3 31.7 23.2 83 2.1 CALM 0 6 0 3 1010.0 1009.9 0.0
14/02:00am 26.5 31.9 23.2 82 2.2 CALM 0 0 0 0 1010.5 1010.4 0.0
14/01:30am 26.9 31.4 22.9 79 2.7 NNE 4 7 2 4 1010.8 1010.7 0.0
14/01:00am 27.4 31.6 23.2 78 2.9 NNE 6 9 3 5 1011.3 1011.2 0.0
14/12:30am 27.7 31.9 23.1 76 3.1 ENE 6 11 3 6 1011.8 1011.7 0.0
14/12:00am 27.6 31.7 23.2 77 3.0 NE 7 13 4 7 1011.9 1011.8 0.0
 
Date/Time
CST
Temp
°C
App
Temp
°C
Dew
Point
°C
Rel
Hum
%
Delta-T
°C
Wind Press
QNH
hPa
Press
MSL
hPa
Rain since
9am
mm
Dir  Spd
km/h
Gust
km/h
Spd
kts
Gust
kts
13/11:30pm 27.8 31.5 23.2 76 3.1 NE 9 15 5 8 1012.3 1012.2 0.0
13/11:00pm 27.9 31.5 23.1 75 3.3 NE 9 15 5 8 1012.7 1012.6 0.0
13/10:30pm 28.1 31.3 23.0 74 3.5 NE 11 20 6 11 1012.6 1012.5 0.0
13/10:00pm 27.8 31.2 22.7 74 3.5 NE 9 13 5 7 1012.3 1012.2 0.0
13/09:30pm 28.1 31.4 22.6 72 3.7 NE 9 15 5 8 1012.0 1011.9 0.0
13/09:00pm 28.0 31.3 22.5 72 3.7 NE 9 15 5 8 1011.5 1011.4 0.0
13/08:30pm 28.0 31.7 22.5 72 3.7 NE 7 13 4 7 1011.1 1011.0 0.0
13/08:00pm 28.2 31.3 22.2 70 4.0 NE 9 20 5 11 1010.6 1010.5 0.0
13/07:30pm 28.3 31.1 22.3 70 4.1 NNE 11 19 6 10 1010.1 1010.0 0.0
13/07:00pm 28.4 30.6 21.9 68 4.4 NNE 13 20 7 11 1010.0 1009.9 0.0
13/06:30pm 28.7 30.8 21.7 66 4.7 NNE 13 22 7 12 1009.7 1009.6 0.0
13/06:00pm 29.1 30.8 21.6 64 5.0 NNE 15 26 8 14 1009.4 1009.3 0.0
13/05:30pm 29.7 31.4 21.6 61 5.5 N 15 22 8 12 1009.2 1009.1 0.0
13/05:00pm 29.9 31.2 21.6 61 5.6 N 17 24 9 13 1009.0 1008.9 0.0
13/04:30pm 30.9 32.6 21.7 58 6.2 N 15 24 8 13 1009.1 1009.0 0.0
13/04:00pm 31.3 32.9 21.5 56 6.6 NNE 15 28 8 15 1009.5 1009.4 0.0
13/03:30pm 31.5 33.1 21.4 55 6.8 N 15 26 8 14 1009.6 1009.5 0.0
13/03:00pm 31.9 32.8 20.8 51 7.4 N 17 33 9 18 1009.9 1009.8 0.0
13/02:30pm 32.1 33.1 21.0 52 7.5 N 17 28 9 15 1010.2 1010.1 0.0
13/02:00pm 31.3 31.2 19.6 49 7.7 NNE 19 28 10 15 1010.4 1010.3 0.0
13/01:30pm 32.5 33.7 21.4 52 7.5 NNE 17 28 9 15 1010.8 1010.7 0.0
13/01:00pm 34.3 36.0 21.7 47 8.6 NE 15 24 8 13 1011.3 1011.2 0.0
13/12:30pm 33.2 33.1 17.0 38 10.3 NE 13 20 7 11 1011.8 1011.7 0.0
13/12:00pm 33.4 32.5 14.9 32 11.4 ENE 13 20 7 11 1012.2 1012.1 0.0
13/11:30am 34.0 33.2 15.0 32 11.8 E 13 20 7 11 1012.6 1012.5 0.0
13/11:00am 33.1 34.2 18.8 42 9.3 NE 11 19 6 10 1012.8 1012.7 0.0
13/10:30am 32.3 34.0 20.2 48 8.0 E 11 19 6 10 1013.2 1013.1 0.0
13/10:00am 32.7 33.8 18.1 42 9.4 ENE 9 17 5 9 1013.5 1013.4 0.0
13/09:30am 32.0 34.3 19.9 48 8.0 S 7 11 4 6 1013.6 1013.5 0.0
13/09:00am 31.1 33.7 20.1 52 7.3 SSE 6 9 3 5 1013.5 1013.4 0.0
13/08:30am 29.8 33.5 21.5 61 5.6 WNW 4 9 2 5 1013.5 1013.4 0.0
13/08:00am 28.7 32.8 22.2 68 4.4 SSW 4 7 2 4 1013.5 1013.4 0.0
13/07:30am 27.1 30.8 22.5 76 3.1 SSW 7 9 4 5 1013.2 1013.1 0.0
13/07:00am 25.8 29.4 22.3 81 2.4 SSW 7 9 4 5 1012.9 1012.8 0.0
13/06:30am 24.5 28.4 22.6 89 1.3 SSW 6 9 3 5 1012.8 1012.7 0.0
13/06:00am 23.4 28.0 21.7 90 1.1 CALM 0 0 0 0 1012.3 1012.2 0.0
13/05:30am 23.6 28.2 21.7 89 1.3 CALM 0 0 0 0 1011.9 1011.8 0.0
13/05:00am 23.9 28.5 21.8 88 1.4 CALM 0 0 0 0 1011.6 1011.5 0.0
13/04:30am 24.2 28.9 21.9 87 1.5 CALM 0 0 0 0 1011.2 1011.1 0.0
13/04:00am 24.4 29.1 21.9 86 1.7 CALM 0 0 0 0 1011.0 1010.9 0.0
13/03:30am 24.8 29.6 22.1 85 1.8 CALM 0 0 0 0 1011.1 1011.0 0.0
13/03:00am 25.4 30.1 21.9 81 2.3 CALM 0 0 0 0 1011.0 1010.9 0.0
13/02:30am 26.3 30.1 22.4 79 2.6 NE 6 9 3 5 1011.2 1011.1 0.0
13/02:00am 26.6 30.4 22.4 78 2.8 NE 6 11 3 6 1011.6 1011.5 0.0
13/01:30am 26.9 30.6 22.5 77 3.0 NNE 7 11 4 6 1011.9 1011.8 0.0
13/01:00am 27.1 31.0 22.5 76 3.1 NNE 6 11 3 6 1012.3 1012.2 0.0
13/12:30am 27.5 30.9 22.7 75 3.3 NE 9 15 5 8 1012.6 1012.5 0.0
13/12:00am 27.8 31.4 23.0 75 3.3 NE 9 13 5 7 1013.0 1012.9 0.0
 
Date/Time
CST
Temp
°C
App
Temp
°C
Dew
Point
°C
Rel
Hum
%
Delta-T
°C
Wind Press
QNH
hPa
Press
MSL
hPa
Rain since
9am
mm
Dir  Spd
km/h
Gust
km/h
Spd
kts
Gust
kts
12/11:30pm 27.9 31.0 22.8 74 3.5 NE 11 19 6 10 1013.1 1013.0 0.0
12/11:00pm 27.9 31.1 23.1 75 3.3 NE 11 17 6 9 1013.2 1013.1 0.0
12/10:30pm 27.9 31.5 23.1 75 3.3 NE 9 17 5 9 1013.0 1012.9 0.0
12/10:00pm 28.0 31.3 23.2 75 3.3 NE 11 17 6 9 1012.9 1012.8 0.0

Other formats

Comma delimited format used in spreadsheet applications
http://www.bom.gov.au/fwo/IDD60801/IDD60801.94140.axf

JavaScript Object Notation format (JSON) in row-major order
http://www.bom.gov.au/fwo/IDD60801/IDD60801.94140.json

Data quality

Most of these data are generated automatically and are frequently updated. Quality checks on data are not normally performed. It is possible for incorrect values to appear. Refer to information at About Latest Weather Observations and please check the disclaimer before using these data.